createdAt,value
2024-03-26T00:04:21.646Z,-18384.00
2024-03-26T00:09:23.117Z,-18380.00
2024-03-26T00:14:23.964Z,-18381.00
2024-03-26T00:19:24.836Z,-18381.00
2024-03-26T00:24:25.636Z,-18378.00
2024-03-26T00:29:26.473Z,-18383.00
2024-03-26T00:34:28.024Z,-18382.00
2024-03-26T00:39:29.832Z,-18377.00
2024-03-26T00:44:30.629Z,-18375.00
2024-03-26T00:49:31.406Z,-18377.00
2024-03-26T00:54:32.204Z,-18374.00
2024-03-26T00:59:32.983Z,-18370.00
2024-03-26T01:04:33.882Z,-18371.00
2024-03-26T01:09:34.731Z,-18367.00
2024-03-26T01:14:35.610Z,-18370.00
2024-03-26T01:19:36.367Z,-18366.00
2024-03-26T01:24:37.395Z,-18360.00
2024-03-26T01:29:38.138Z,-18363.00
2024-03-26T01:34:39.094Z,-18362.00
2024-03-26T01:39:39.858Z,-18362.00
2024-03-26T01:44:40.711Z,-18361.00
2024-03-26T01:49:42.004Z,-18366.00
2024-03-26T01:54:44.360Z,-18367.00
2024-03-26T01:59:45.651Z,-18371.00
2024-03-26T02:04:46.822Z,-18367.00
2024-03-26T02:09:48.026Z,-18365.00
2024-03-26T02:14:49.008Z,-18363.00
2024-03-26T02:19:49.914Z,-18365.00
2024-03-26T02:24:50.686Z,-18366.00
2024-03-26T02:29:51.568Z,-18368.00
2024-03-26T02:34:53.432Z,-18365.00
2024-03-26T02:39:54.201Z,-18364.00
2024-03-26T02:44:55.025Z,-18368.00
2024-03-26T02:49:55.866Z,-18370.00
2024-03-26T02:54:56.767Z,-18366.00
2024-03-26T02:59:57.571Z,-18370.00
2024-03-26T03:04:58.475Z,-18366.00
2024-03-26T03:09:59.289Z,-18367.00
2024-03-26T03:15:00.219Z,-18367.00
2024-03-26T03:20:01.203Z,-18370.00
2024-03-26T03:25:02.482Z,-18369.00
2024-03-26T03:30:04.932Z,-18366.00
2024-03-26T03:35:05.996Z,-18361.00
2024-03-26T03:40:07.526Z,-18364.00
2024-03-26T03:45:08.508Z,-18364.00
2024-03-26T03:50:09.477Z,-18357.00
2024-03-26T03:55:10.238Z,-18361.00
2024-03-26T04:00:11.932Z,-18357.00
2024-03-26T04:05:12.772Z,-18351.00
2024-03-26T04:10:13.602Z,-18349.00
2024-03-26T04:15:14.745Z,-18345.00
2024-03-26T04:20:15.545Z,-18347.00
2024-03-26T04:25:16.382Z,-18350.00
2024-03-26T04:30:17.559Z,-18347.00
2024-03-26T04:35:18.706Z,-18351.00
2024-03-26T04:40:19.498Z,-18352.00
2024-03-26T04:45:23.421Z,-18354.00
2024-03-26T04:50:24.452Z,-18355.00
2024-03-26T04:55:25.267Z,-18355.00
2024-03-26T05:00:26.034Z,-18353.00
2024-03-26T05:05:27.017Z,-18353.00
2024-03-26T05:10:27.791Z,-18359.00
2024-03-26T05:15:28.593Z,-18358.00
2024-03-26T05:20:29.391Z,-18359.00
2024-03-26T05:25:30.661Z,-18362.00
2024-03-26T05:30:31.456Z,-18359.00
2024-03-26T05:35:32.535Z,-18364.00
2024-03-26T05:40:33.338Z,-18360.00
2024-03-26T05:45:36.092Z,-18362.00
2024-03-26T05:50:36.899Z,-18365.00
2024-03-26T05:55:37.707Z,-18367.00
2024-03-26T06:00:38.482Z,-18366.00
2024-03-26T06:05:40.706Z,-18365.00
2024-03-26T06:10:41.621Z,-18363.00
2024-03-26T06:15:42.474Z,-18364.00
2024-03-26T06:20:43.242Z,-18366.00
2024-03-26T06:25:44.030Z,-18372.00
2024-03-26T06:30:45.559Z,-18380.00
2024-03-26T06:35:47.134Z,-18384.00
2024-03-26T06:40:48.434Z,-18386.00
2024-03-26T06:45:49.258Z,-18379.00
2024-03-26T06:50:50.832Z,-18376.00
2024-03-26T06:55:51.642Z,-18375.00
2024-03-26T07:00:52.421Z,-18378.00
2024-03-26T07:05:53.425Z,-18381.00
2024-03-26T07:10:56.315Z,-18384.00
2024-03-26T07:15:57.875Z,-18384.00
2024-03-26T07:20:59.041Z,-18394.00
2024-03-26T07:25:59.857Z,-18397.00
2024-03-26T07:31:00.710Z,-18403.00
2024-03-26T07:36:01.853Z,-18404.00
2024-03-26T07:41:02.797Z,-18404.00
2024-03-26T07:46:03.838Z,-18404.00
2024-03-26T07:51:04.958Z,-18413.00
2024-03-26T07:56:07.262Z,-18412.00
2024-03-26T08:01:08.057Z,-18407.00
2024-03-26T08:06:09.083Z,-18408.00
2024-03-26T08:11:13.533Z,-18411.00
2024-03-26T08:16:14.336Z,-18418.00
2024-03-26T08:21:15.894Z,-18420.00
2024-03-26T08:26:16.696Z,-18418.00
2024-03-26T08:31:18.218Z,-18422.00
2024-03-26T08:36:19.122Z,-18424.00
2024-03-26T08:41:20.208Z,-18429.00
2024-03-26T08:46:21.405Z,-18436.00
2024-03-26T08:51:28.303Z,-18430.00
2024-03-26T08:56:29.131Z,-18428.00
2024-03-26T09:01:30.419Z,-18428.00
2024-03-26T09:06:31.291Z,-18429.00
2024-03-26T09:11:32.114Z,-18432.00
2024-03-26T09:16:32.903Z,-18434.00
2024-03-26T09:21:33.745Z,-18428.00
2024-03-26T09:26:34.582Z,-18432.00
2024-03-26T09:31:35.389Z,-18437.00
2024-03-26T09:36:37.917Z,-18428.00
2024-03-26T09:41:40.113Z,-18439.00
2024-03-26T09:46:43.196Z,-18451.00
2024-03-26T09:51:43.953Z,-18457.00
2024-03-26T09:56:45.113Z,-18448.00
2024-03-26T10:01:47.874Z,-18444.00
2024-03-26T10:06:48.978Z,-18465.00
2024-03-26T10:11:50.172Z,-18461.00
2024-03-26T10:16:50.962Z,-18458.00
2024-03-26T10:21:53.553Z,-18459.00
2024-03-26T10:26:54.758Z,-18474.00
2024-03-26T10:31:55.780Z,-18486.00
2024-03-26T10:36:58.893Z,-18501.00
2024-03-26T10:42:01.033Z,-18501.00
2024-03-26T10:47:03.330Z,-18500.00
2024-03-26T10:52:08.003Z,-18491.00
2024-03-26T10:57:11.995Z,-18486.00
2024-03-26T11:02:13.830Z,-18486.00
2024-03-26T11:07:14.715Z,-18482.00
2024-03-26T11:12:21.465Z,-18482.00
2024-03-26T11:17:24.930Z,-18493.00
2024-03-26T11:22:25.696Z,-18493.00
2024-03-26T11:27:26.642Z,-18505.00
2024-03-26T11:32:33.419Z,-18512.00
2024-03-26T11:37:34.640Z,-18510.00
2024-03-26T11:42:37.374Z,-18512.00
2024-03-26T11:47:38.689Z,-18521.00
2024-03-26T11:52:39.716Z,-18559.00
2024-03-26T11:57:44.004Z,-18572.00
2024-03-26T12:02:45.157Z,-18606.00
2024-03-26T12:07:46.318Z,-18569.00
2024-03-26T12:12:47.949Z,-18576.00
2024-03-26T12:17:48.746Z,-18569.00
2024-03-26T12:22:49.557Z,-18574.00
2024-03-26T12:27:51.316Z,-18566.00
2024-03-26T12:32:59.194Z,-18594.00
2024-03-26T12:38:00.324Z,-18601.00
2024-03-26T12:43:01.662Z,-18620.00
2024-03-26T12:48:02.768Z,-18613.00
2024-03-26T12:53:04.881Z,-18605.00
2024-03-26T12:58:05.696Z,-18586.00
2024-03-26T13:03:08.925Z,-18595.00
2024-03-26T13:08:10.048Z,-18621.00
2024-03-26T13:13:10.911Z,-18626.00
2024-03-26T13:18:11.867Z,-18618.00
2024-03-26T13:23:12.703Z,-18633.00
2024-03-26T13:28:13.528Z,-18622.00
2024-03-26T13:33:14.329Z,-18636.00
2024-03-26T13:38:15.192Z,-18649.00
2024-03-26T13:43:16.333Z,-18664.00
2024-03-26T13:48:18.688Z,-18655.00
2024-03-26T13:53:19.533Z,-18661.00
2024-03-26T13:58:20.956Z,-18656.00
2024-03-26T14:03:21.789Z,-18675.00
2024-03-26T14:08:22.837Z,-18677.00
2024-03-26T14:13:23.613Z,-18678.00
2024-03-26T14:18:24.408Z,-18679.00
2024-03-26T14:23:25.265Z,-18663.00
2024-03-26T14:28:26.106Z,-18657.00
2024-03-26T14:33:26.912Z,-18654.00
2024-03-26T14:38:29.413Z,-18657.00
2024-03-26T14:43:30.316Z,-18662.00
2024-03-26T14:48:31.149Z,-18655.00
2024-03-26T14:53:32.114Z,-18659.00
2024-03-26T14:58:33.058Z,-18651.00
2024-03-26T15:03:33.828Z,-18641.00
2024-03-26T15:08:34.749Z,-18643.00
2024-03-26T15:13:35.541Z,-18635.00
2024-03-26T15:18:36.437Z,-18637.00
2024-03-26T15:23:37.222Z,-18641.00
2024-03-26T15:28:56.365Z,-18631.00
2024-03-26T15:33:57.148Z,-18629.00
2024-03-26T15:38:58.136Z,-18632.00
2024-03-26T15:43:58.974Z,-18627.00
2024-03-26T15:49:00.984Z,-18620.00
2024-03-26T15:54:02.223Z,-18620.00
2024-03-26T15:59:03.413Z,-18625.00
2024-03-26T16:04:06.118Z,-18624.00
2024-03-26T16:09:08.118Z,-18617.00
2024-03-26T16:14:08.975Z,-18612.00
2024-03-26T16:19:09.788Z,-18609.00
2024-03-26T16:24:10.596Z,-18614.00
2024-03-26T16:29:11.463Z,-18617.00
2024-03-26T16:34:12.246Z,-18621.00
2024-03-26T16:39:14.750Z,-18618.00
2024-03-26T16:44:17.403Z,-18617.00
2024-03-26T16:49:18.190Z,-18609.00
2024-03-26T16:54:19.052Z,-18603.00
2024-03-26T16:59:19.865Z,-18601.00
2024-03-26T17:04:20.682Z,-18596.00
2024-03-26T17:09:21.625Z,-18596.00
2024-03-26T17:14:22.481Z,-18594.00
2024-03-26T17:19:23.253Z,-18591.00
2024-03-26T17:24:24.063Z,-18591.00
2024-03-26T17:29:24.892Z,-18587.00
2024-03-26T17:34:25.803Z,-18585.00
2024-03-26T17:39:26.717Z,-18584.00
2024-03-26T17:44:27.551Z,-18581.00
2024-03-26T17:49:30.011Z,-18579.00
2024-03-26T17:54:30.774Z,-18575.00
2024-03-26T17:59:31.674Z,-18574.00
2024-03-26T18:04:33.138Z,-18569.00
2024-03-26T18:09:38.433Z,-18567.00
2024-03-26T18:14:39.479Z,-18563.00
2024-03-26T18:19:40.293Z,-18564.00
2024-03-26T18:24:42.042Z,-18558.00
2024-03-26T18:29:43.674Z,-18553.00
2024-03-26T18:34:44.526Z,-18548.00
2024-03-26T18:39:45.501Z,-18546.00
2024-03-26T18:44:46.866Z,-18550.00
2024-03-26T18:49:47.938Z,-18552.00
2024-03-26T18:54:49.646Z,-18546.00
2024-03-26T18:59:50.506Z,-18537.00
2024-03-26T19:04:51.307Z,-18531.00
2024-03-26T19:09:52.316Z,-18529.00
2024-03-26T19:14:53.131Z,-18538.00
2024-03-26T19:19:53.945Z,-18541.00
2024-03-26T19:24:55.276Z,-18544.00
2024-03-26T19:29:56.089Z,-18549.00
2024-03-26T19:34:57.004Z,-18548.00
2024-03-26T19:39:57.987Z,-18552.00
2024-03-26T19:44:59.190Z,-18551.00
2024-03-26T19:50:00.957Z,-18549.00
2024-03-26T19:55:05.023Z,-18553.00
2024-03-26T20:00:08.156Z,-18552.00
2024-03-26T20:05:09.009Z,-18554.00
2024-03-26T20:10:10.232Z,-18558.00
2024-03-26T20:15:11.907Z,-18554.00
2024-03-26T20:20:15.455Z,-18553.00
2024-03-26T20:25:16.670Z,-18554.00
2024-03-26T20:30:17.561Z,-18552.00
2024-03-26T20:35:18.790Z,-18554.00
2024-03-26T20:40:19.887Z,-18552.00
2024-03-26T20:45:20.726Z,-18550.00
2024-03-26T20:50:21.663Z,-18552.00
2024-03-26T20:55:22.679Z,-18548.00
2024-03-26T21:00:23.477Z,-18551.00
2024-03-26T21:05:27.338Z,-18549.00
2024-03-26T21:10:32.541Z,-18548.00
2024-03-26T21:15:33.379Z,-18544.00
2024-03-26T21:20:40.477Z,-18544.00
2024-03-26T21:25:41.462Z,-18545.00
2024-03-26T21:30:42.388Z,-18545.00
2024-03-26T21:35:43.161Z,-18547.00
2024-03-26T21:40:45.723Z,-18546.00
2024-03-26T21:45:46.615Z,-18545.00
2024-03-26T21:51:02.200Z,-18544.00
2024-03-26T21:56:07.228Z,-18544.00
2024-03-26T22:01:13.528Z,-18540.00
2024-03-26T22:06:15.074Z,-18536.00
2024-03-26T22:11:16.165Z,-18538.00
2024-03-26T22:16:17.307Z,-18538.00
2024-03-26T22:21:18.948Z,-18537.00
2024-03-26T22:26:19.997Z,-18532.00
2024-03-26T22:31:20.870Z,-18534.00
2024-03-26T22:36:21.711Z,-18537.00
2024-03-26T22:41:22.735Z,-18537.00
2024-03-26T22:46:23.598Z,-18536.00
2024-03-26T22:51:24.490Z,-18535.00
2024-03-26T22:56:25.329Z,-18532.00
2024-03-26T23:01:26.212Z,-18535.00
2024-03-26T23:06:27.093Z,-18537.00
2024-03-26T23:11:29.544Z,-18539.00
2024-03-26T23:16:30.575Z,-18538.00
2024-03-26T23:21:31.471Z,-18536.00
2024-03-26T23:26:32.364Z,-18541.00
2024-03-26T23:31:33.718Z,-18543.00
2024-03-26T23:36:34.569Z,-18543.00
2024-03-26T23:41:35.615Z,-18542.00
2024-03-26T23:46:36.457Z,-18540.00
2024-03-26T23:51:37.378Z,-18544.00
2024-03-26T23:56:38.987Z,-18542.00
